createdAt,value
2018-07-12T00:01:35.449Z,17.62
2018-07-12T00:04:08.727Z,18.25
2018-07-12T00:06:42.983Z,19.23
2018-07-12T00:09:16.278Z,19.82
2018-07-12T00:11:49.540Z,19.32
2018-07-12T00:14:23.079Z,19.07
2018-07-12T00:16:57.352Z,18.52
2018-07-12T00:19:30.891Z,18.48
2018-07-12T00:22:05.152Z,19.45
2018-07-12T00:24:39.594Z,19.52
2018-07-12T00:27:12.874Z,19.10
2018-07-12T00:29:46.423Z,20.25
2018-07-12T00:32:19.684Z,20.10
2018-07-12T00:34:53.203Z,21.87
2018-07-12T00:37:26.468Z,22.13
2018-07-12T00:40:00.749Z,23.45
2018-07-12T00:42:33.998Z,23.70
2018-07-12T00:45:07.290Z,23.07
2018-07-12T00:47:41.879Z,24.57
2018-07-12T00:50:15.224Z,24.75
2018-07-12T00:52:49.469Z,24.70
2018-07-12T00:55:22.752Z,24.15
2018-07-12T00:57:56.014Z,26.37
2018-07-12T01:00:29.327Z,24.32
2018-07-12T01:03:02.789Z,23.70
2018-07-12T01:05:36.068Z,21.68
2018-07-12T01:08:10.305Z,21.68
2018-07-12T01:10:44.668Z,20.17
2018-07-12T01:13:17.935Z,19.27
2018-07-12T01:15:52.193Z,18.07
2018-07-12T01:18:25.449Z,18.65
2018-07-12T01:20:58.752Z,18.27
2018-07-12T01:23:32.197Z,19.80
2018-07-12T01:26:05.832Z,18.17
2018-07-12T01:28:39.169Z,20.05
2018-07-12T01:31:12.464Z,19.98
2018-07-12T01:33:46.715Z,20.23
2018-07-12T01:36:20.017Z,19.80
2018-07-12T01:38:53.280Z,19.10
2018-07-12T01:41:26.579Z,19.32
2018-07-12T01:44:00.832Z,18.55
2018-07-12T01:46:34.140Z,19.62
2018-07-12T01:49:07.384Z,18.20
2018-07-12T01:51:40.679Z,18.48
2018-07-12T01:54:13.921Z,19.62
2018-07-12T01:56:48.248Z,19.40
2018-07-12T01:59:21.778Z,18.73
2018-07-12T02:01:55.056Z,18.75
2018-07-12T02:04:28.317Z,19.85
2018-07-12T02:07:01.876Z,18.60
2018-07-12T02:09:35.125Z,19.45
2018-07-12T02:12:08.409Z,19.48
2018-07-12T02:14:41.645Z,20.08
2018-07-12T02:17:14.954Z,21.25
2018-07-12T02:19:49.233Z,20.82
2018-07-12T02:22:22.522Z,20.52
2018-07-12T02:24:55.775Z,20.17
2018-07-12T02:27:29.555Z,20.62
2018-07-12T02:30:02.820Z,19.32
2018-07-12T02:32:37.120Z,20.82
2018-07-12T02:35:11.549Z,20.52
2018-07-12T02:37:45.913Z,19.77
2018-07-12T02:40:19.203Z,22.10
2018-07-12T02:42:52.484Z,21.75
2018-07-12T02:45:25.749Z,20.90
2018-07-12T02:48:00.000Z,22.20
2018-07-12T02:50:33.304Z,23.77
2018-07-12T02:53:06.799Z,24.70
2018-07-12T02:55:40.148Z,25.68
2018-07-12T02:58:13.412Z,26.55
2018-07-12T03:00:46.676Z,27.37
2018-07-12T03:03:20.304Z,24.72
2018-07-12T03:05:53.572Z,19.37
2018-07-12T03:08:27.080Z,19.07
2018-07-12T03:11:00.761Z,16.07
2018-07-12T03:13:34.037Z,16.27
2018-07-12T03:16:07.501Z,15.80
2018-07-12T03:18:40.793Z,15.50
2018-07-12T03:21:14.033Z,12.70
2018-07-12T03:23:47.607Z,13.62
2018-07-12T03:26:21.385Z,10.82
2018-07-12T03:28:54.669Z,10.78
2018-07-12T03:31:27.925Z,10.05
2018-07-12T03:34:01.470Z,9.88
2018-07-12T03:36:34.716Z,8.65
2018-07-12T03:39:08.988Z,8.13
2018-07-12T03:41:42.231Z,8.83
2018-07-12T03:44:15.797Z,9.33
2018-07-12T03:46:49.225Z,8.93
2018-07-12T03:49:22.516Z,9.25
2018-07-12T03:51:56.018Z,10.60
2018-07-12T03:54:30.446Z,10.55
2018-07-12T03:57:03.761Z,9.95
2018-07-12T03:59:38.048Z,9.88
2018-07-12T04:02:11.579Z,9.28
2018-07-12T04:04:44.812Z,9.53
2018-07-12T04:07:18.100Z,9.73
2018-07-12T04:09:51.629Z,9.40
2018-07-12T04:12:24.915Z,8.78
2018-07-12T04:14:58.161Z,8.73
2018-07-12T04:17:33.492Z,8.60
2018-07-12T04:20:07.049Z,8.33
2018-07-12T04:22:40.570Z,7.67
2018-07-12T04:25:13.796Z,7.30
2018-07-12T04:27:47.055Z,7.10
2018-07-12T04:30:20.308Z,7.50
2018-07-12T04:32:54.601Z,6.95
2018-07-12T04:35:28.828Z,7.30
2018-07-12T04:38:02.103Z,6.35
2018-07-12T04:40:35.352Z,6.95
2018-07-12T04:43:08.603Z,6.33
2018-07-12T04:45:42.871Z,5.92
2018-07-12T04:48:17.106Z,6.03
2018-07-12T04:50:51.383Z,5.65
2018-07-12T04:53:24.620Z,6.17
2018-07-12T04:55:57.881Z,5.95
2018-07-12T04:58:31.162Z,5.85
2018-07-12T05:01:04.623Z,5.95
2018-07-12T05:03:37.882Z,5.70
2018-07-12T05:06:11.144Z,4.95
2018-07-12T05:08:44.373Z,5.35
2018-07-12T05:11:17.638Z,5.40
2018-07-12T05:13:52.645Z,4.15
2018-07-12T05:19:09.772Z,4.03
2018-07-12T05:21:43.294Z,3.30
2018-07-12T05:24:16.574Z,3.37
2018-07-12T05:26:50.837Z,3.60
2018-07-12T05:29:25.093Z,3.40
2018-07-12T05:31:58.329Z,3.70
2018-07-12T05:34:31.594Z,3.75
2018-07-12T05:37:07.344Z,2.98
2018-07-12T05:39:42.104Z,3.05
2018-07-12T05:42:16.961Z,3.10
2018-07-12T05:45:00.563Z,2.90
2018-07-12T05:47:35.384Z,2.47
2018-07-12T05:50:10.186Z,2.75
2018-07-12T05:52:45.898Z,2.55
2018-07-12T05:55:20.646Z,3.05
2018-07-12T05:57:55.408Z,2.40
2018-07-12T06:00:30.158Z,2.47
2018-07-12T06:03:12.549Z,2.47
2018-07-12T06:05:47.392Z,2.70
2018-07-12T06:08:22.130Z,2.42
2018-07-12T06:10:56.893Z,2.92
2018-07-12T06:13:32.651Z,2.83
2018-07-12T06:16:07.373Z,2.30
2018-07-12T06:18:42.311Z,2.47
2018-07-12T06:21:17.085Z,2.50
2018-07-12T06:23:52.843Z,2.55
2018-07-12T06:26:27.520Z,2.20
2018-07-12T06:29:02.297Z,2.27
2018-07-12T06:31:37.016Z,2.20
2018-07-12T06:34:11.801Z,2.05
2018-07-12T06:36:46.500Z,2.00
2018-07-12T06:39:21.282Z,2.00
2018-07-12T06:41:55.980Z,1.92
2018-07-12T06:44:30.758Z,2.05
2018-07-12T06:47:05.868Z,1.98
2018-07-12T06:49:41.611Z,1.72
2018-07-12T06:52:16.359Z,2.25
2018-07-12T06:54:51.100Z,1.55
2018-07-12T06:57:25.855Z,1.67
2018-07-12T07:00:00.312Z,2.77
2018-07-12T07:02:35.000Z,1.70
2018-07-12T07:05:09.874Z,1.82
2018-07-12T07:07:44.599Z,1.50
2018-07-12T07:10:19.367Z,1.85
2018-07-12T07:12:53.647Z,1.85
2018-07-12T07:15:28.429Z,1.75
2018-07-12T07:18:14.929Z,1.60
2018-07-12T07:20:56.958Z,1.70
2018-07-12T07:26:17.342Z,1.50
2018-07-12T07:28:53.838Z,1.47
2018-07-12T07:31:30.170Z,1.65
2018-07-12T07:34:06.536Z,1.83
2018-07-12T07:36:42.394Z,1.33
2018-07-12T07:39:19.652Z,1.70
2018-07-12T07:41:55.389Z,1.50
2018-07-12T07:44:32.029Z,1.40
2018-07-12T07:47:07.174Z,1.60
2018-07-12T07:49:43.047Z,1.72
2018-07-12T07:52:17.254Z,1.60
2018-07-12T07:54:52.005Z,1.22
2018-07-12T07:57:26.726Z,1.62
2018-07-12T08:00:02.248Z,1.50
2018-07-12T08:02:39.816Z,1.50
2018-07-12T08:05:26.192Z,1.50
2018-07-12T08:08:02.433Z,1.40
2018-07-12T08:10:38.526Z,1.60
2018-07-12T08:13:13.722Z,1.52
2018-07-12T08:15:48.602Z,1.60
2018-07-12T08:18:24.223Z,1.20
2018-07-12T08:21:01.075Z,1.50
2018-07-12T08:23:35.994Z,1.75
2018-07-12T08:26:12.836Z,2.17
2018-07-12T08:28:48.506Z,1.62
2018-07-12T08:31:25.349Z,2.08
2018-07-12T08:34:01.533Z,1.77
2018-07-12T08:37:09.009Z,2.10
2018-07-12T08:39:44.780Z,1.70
2018-07-12T08:42:19.586Z,1.98
2018-07-12T08:44:55.497Z,2.10
2018-07-12T08:47:30.281Z,1.90
2018-07-12T08:50:05.077Z,1.95
2018-07-12T08:52:39.841Z,1.80
2018-07-12T08:55:14.584Z,1.90
2018-07-12T08:57:48.837Z,2.17
2018-07-12T09:00:24.616Z,1.72
2018-07-12T09:02:59.475Z,1.70
2018-07-12T09:05:35.373Z,1.75
2018-07-12T09:08:10.120Z,1.67
2018-07-12T09:10:44.820Z,2.00
2018-07-12T09:13:19.548Z,1.40
2018-07-12T09:15:54.404Z,1.70
2018-07-12T09:18:29.285Z,1.80
2018-07-12T09:21:04.148Z,1.77
2018-07-12T09:23:40.204Z,1.60
2018-07-12T09:26:15.062Z,2.00
2018-07-12T09:28:49.896Z,1.60
2018-07-12T09:31:24.845Z,1.57
2018-07-12T09:33:59.107Z,1.50
2018-07-12T09:36:34.866Z,2.02
2018-07-12T09:39:09.601Z,1.45
2018-07-12T09:41:44.406Z,1.67
2018-07-12T09:44:19.208Z,1.50
2018-07-12T09:46:53.976Z,1.50
2018-07-12T09:49:29.705Z,1.50
2018-07-12T09:52:09.597Z,1.35
2018-07-12T09:54:44.313Z,1.60
2018-07-12T09:57:30.092Z,1.50
2018-07-12T10:00:05.403Z,1.55
2018-07-12T10:02:45.324Z,1.65
2018-07-12T10:05:25.302Z,1.82
2018-07-12T10:08:05.101Z,1.85
2018-07-12T10:10:44.623Z,1.72
2018-07-12T10:13:25.353Z,1.95
2018-07-12T10:16:04.104Z,1.60
2018-07-12T10:18:38.860Z,1.62
2018-07-12T10:21:13.590Z,1.70
2018-07-12T10:23:49.400Z,1.90
2018-07-12T10:26:24.160Z,2.00
2018-07-12T10:28:58.402Z,1.80
2018-07-12T10:31:34.192Z,1.75
2018-07-12T10:34:08.936Z,2.00
2018-07-12T10:36:43.672Z,1.65
2018-07-12T10:39:18.979Z,2.15
2018-07-12T10:41:53.960Z,1.92
2018-07-12T10:44:28.255Z,1.80
2018-07-12T10:47:02.516Z,2.15
2018-07-12T10:49:37.352Z,2.12
2018-07-12T10:52:12.056Z,2.45
2018-07-12T10:54:46.799Z,2.20
2018-07-12T10:57:22.607Z,2.27
2018-07-12T10:59:56.899Z,1.87
2018-07-12T11:02:32.679Z,2.40
2018-07-12T11:05:07.035Z,2.40
2018-07-12T11:07:41.516Z,2.40
2018-07-12T11:10:15.807Z,2.50
2018-07-12T11:13:01.307Z,2.50
2018-07-12T11:15:35.563Z,2.25
2018-07-12T11:18:10.296Z,3.00
2018-07-12T11:20:45.055Z,2.72
2018-07-12T11:23:19.757Z,2.52
2018-07-12T11:25:54.479Z,2.60
2018-07-12T11:28:29.172Z,2.40
2018-07-12T11:31:03.947Z,2.27
2018-07-12T11:33:40.687Z,2.22
2018-07-12T11:36:15.449Z,2.52
2018-07-12T11:38:50.407Z,2.10
2018-07-12T11:41:25.852Z,2.50
2018-07-12T11:44:00.329Z,2.40
2018-07-12T11:46:34.816Z,2.37
2018-07-12T11:49:09.264Z,2.20
2018-07-12T11:51:43.680Z,2.37
2018-07-12T11:54:18.323Z,1.90
2018-07-12T11:56:52.753Z,2.10
2018-07-12T11:59:27.749Z,2.13
2018-07-12T12:02:03.260Z,2.13
2018-07-12T12:04:38.917Z,2.20
2018-07-12T12:07:13.372Z,2.30
2018-07-12T12:09:48.919Z,2.30
2018-07-12T12:12:23.652Z,2.12
2018-07-12T12:14:58.420Z,2.30
2018-07-12T12:17:33.144Z,2.60
2018-07-12T12:20:08.489Z,2.20
2018-07-12T12:22:43.303Z,2.30
2018-07-12T12:25:17.655Z,2.22
2018-07-12T12:27:52.456Z,2.22
2018-07-12T12:30:27.794Z,2.30
2018-07-12T12:33:02.120Z,1.87
2018-07-12T12:35:37.922Z,2.30
2018-07-12T12:38:12.648Z,1.95
2018-07-12T12:40:47.410Z,2.10
2018-07-12T12:43:21.653Z,2.42
2018-07-12T12:45:56.366Z,2.05
2018-07-12T12:48:32.172Z,2.02
2018-07-12T12:51:07.016Z,2.20
2018-07-12T12:53:41.733Z,2.00
2018-07-12T12:56:17.516Z,1.85
2018-07-12T12:58:52.209Z,2.12
2018-07-12T13:01:26.946Z,2.30
2018-07-12T13:04:01.733Z,1.87
2018-07-12T13:06:36.656Z,1.65
2018-07-12T13:09:11.379Z,2.27
2018-07-12T13:11:46.179Z,2.08
2018-07-12T13:14:20.950Z,2.05
2018-07-12T13:16:56.890Z,2.15
2018-07-12T13:19:32.622Z,2.12
2018-07-12T13:22:07.426Z,2.00
2018-07-12T13:24:41.691Z,1.98
2018-07-12T13:27:16.493Z,1.62
2018-07-12T13:29:51.243Z,2.17
2018-07-12T13:32:27.024Z,1.82
2018-07-12T13:35:01.947Z,1.85
2018-07-12T13:37:36.748Z,1.98
2018-07-12T13:40:11.449Z,2.05
2018-07-12T13:42:46.217Z,1.92
2018-07-12T13:45:21.148Z,2.00
2018-07-12T13:47:55.952Z,1.90
2018-07-12T13:50:30.675Z,2.22
2018-07-12T13:53:05.744Z,1.85
2018-07-12T13:55:41.494Z,2.45
2018-07-12T13:58:17.251Z,2.20
2018-07-12T14:00:51.997Z,1.98
2018-07-12T14:03:26.407Z,2.42
2018-07-12T14:06:01.166Z,2.08
2018-07-12T14:08:35.937Z,2.45
2018-07-12T14:11:10.804Z,2.40
2018-07-12T14:13:45.113Z,2.25
2018-07-12T14:16:19.386Z,2.22
2018-07-12T14:18:54.237Z,2.55
2018-07-12T14:21:28.993Z,2.70
2018-07-12T14:24:03.312Z,2.42
2018-07-12T14:26:38.025Z,2.62
2018-07-12T14:29:12.798Z,2.22
2018-07-12T14:31:47.531Z,2.40
2018-07-12T14:34:22.268Z,2.62
2018-07-12T14:36:56.970Z,2.47
2018-07-12T14:39:32.749Z,2.72
2018-07-12T14:42:07.470Z,2.45
2018-07-12T14:44:42.230Z,2.62
2018-07-12T14:47:16.967Z,2.35
2018-07-12T14:49:51.255Z,2.27
2018-07-12T14:52:25.993Z,3.22
2018-07-12T14:55:01.845Z,2.92
2018-07-12T14:57:36.774Z,15.50
2018-07-12T15:00:11.519Z,6.92
2018-07-12T15:02:45.771Z,31.75
2018-07-12T15:05:20.569Z,2.35
2018-07-12T15:07:55.455Z,2.37
2018-07-12T15:10:30.236Z,1.70
2018-07-12T15:13:05.013Z,1.92
2018-07-12T15:15:39.830Z,2.30
2018-07-12T15:18:14.668Z,2.30
2018-07-12T15:20:49.448Z,2.08
2018-07-12T15:23:29.220Z,3.80
2018-07-12T15:26:12.382Z,2.47
2018-07-12T15:28:48.104Z,2.70
2018-07-12T15:31:28.055Z,4.67
2018-07-12T15:34:03.476Z,3.67
2018-07-12T15:36:38.534Z,4.20
2018-07-12T15:39:13.871Z,3.00
2018-07-12T15:41:51.493Z,2.80
2018-07-12T15:44:28.021Z,3.25
2018-07-12T15:47:04.691Z,2.55
2018-07-12T15:49:39.898Z,2.67
2018-07-12T15:52:14.969Z,2.83
2018-07-12T15:54:51.248Z,2.70
2018-07-12T15:57:27.813Z,3.05
2018-07-12T16:00:03.681Z,2.45
2018-07-12T16:02:41.006Z,2.60
2018-07-12T16:05:17.411Z,2.55
2018-07-12T16:07:53.981Z,2.40
2018-07-12T16:10:31.053Z,2.20
2018-07-12T16:13:06.124Z,2.50
2018-07-12T16:15:40.912Z,2.52
2018-07-12T16:18:16.942Z,2.37
2018-07-12T16:20:51.741Z,2.30
2018-07-12T16:23:25.954Z,2.87
2018-07-12T16:26:00.708Z,2.67
2018-07-12T16:28:35.475Z,2.83
2018-07-12T16:31:11.278Z,2.95
2018-07-12T16:33:46.007Z,2.40
2018-07-12T16:36:20.811Z,2.90
2018-07-12T16:38:55.105Z,2.35
2018-07-12T16:41:29.875Z,2.80
2018-07-12T16:44:04.726Z,2.67
2018-07-12T16:46:40.308Z,2.77
2018-07-12T16:49:32.740Z,2.55
2018-07-12T16:52:38.241Z,2.67
2018-07-12T16:58:22.752Z,2.80
2018-07-12T17:01:54.173Z,3.02
2018-07-12T17:04:50.566Z,2.92
2018-07-12T17:10:34.543Z,3.70
2018-07-12T17:16:02.209Z,3.35
2018-07-12T17:18:51.653Z,3.52
2018-07-12T17:21:41.556Z,3.47
2018-07-12T17:24:16.565Z,3.30
2018-07-12T17:26:51.366Z,3.60
2018-07-12T17:29:26.090Z,3.30
2018-07-12T17:32:01.897Z,3.42
2018-07-12T17:34:36.606Z,3.42
2018-07-12T17:37:11.392Z,3.25
2018-07-12T17:39:46.152Z,3.20
2018-07-12T17:42:20.849Z,2.95
2018-07-12T17:44:55.597Z,3.08
2018-07-12T17:47:30.374Z,3.15
2018-07-12T17:50:05.454Z,3.33
2018-07-12T17:52:40.224Z,3.42
2018-07-12T17:55:40.825Z,3.10
2018-07-12T17:58:38.152Z,3.65
2018-07-12T18:01:42.074Z,3.05
2018-07-12T18:07:21.927Z,3.27
2018-07-12T18:10:14.036Z,3.00
2018-07-12T18:13:11.257Z,3.20
2018-07-12T18:16:07.068Z,3.12
2018-07-12T18:19:06.167Z,2.80
2018-07-12T18:21:55.556Z,3.02
2018-07-12T18:24:39.852Z,2.55
2018-07-12T18:30:13.294Z,3.15
2018-07-12T18:35:51.607Z,3.10
2018-07-12T18:38:27.901Z,2.67
2018-07-12T18:41:11.003Z,2.58
2018-07-12T18:43:47.272Z,2.77
2018-07-12T18:46:35.322Z,2.45
2018-07-12T18:49:11.806Z,2.40
2018-07-12T18:51:48.103Z,3.08
2018-07-12T18:54:24.575Z,3.00
2018-07-12T18:56:59.873Z,3.10
2018-07-12T18:59:36.040Z,3.00
2018-07-12T19:02:11.468Z,2.80
2018-07-12T19:04:48.789Z,2.35
2018-07-12T19:07:24.058Z,2.40
2018-07-12T19:10:04.351Z,2.60
2018-07-12T19:12:38.786Z,2.50
2018-07-12T19:15:14.347Z,3.08
2018-07-12T19:17:49.347Z,2.85
2018-07-12T19:20:23.647Z,2.40
2018-07-12T19:22:58.363Z,3.15
2018-07-12T19:25:34.155Z,4.95
2018-07-12T19:28:08.944Z,4.80
2018-07-12T19:30:43.671Z,7.03
2018-07-12T19:33:18.483Z,6.80
2018-07-12T19:35:54.282Z,6.87
2018-07-12T19:38:29.009Z,6.15
2018-07-12T19:41:03.283Z,6.30
2018-07-12T19:43:38.638Z,5.85
2018-07-12T19:46:13.425Z,5.15
2018-07-12T19:48:48.257Z,4.85
2018-07-12T19:51:24.040Z,4.60
2018-07-12T19:54:20.433Z,4.15
2018-07-12T19:56:59.565Z,4.40
2018-07-12T19:59:36.720Z,4.22
2018-07-12T20:02:19.056Z,3.80
2018-07-12T20:04:57.793Z,3.60
2018-07-12T20:07:32.585Z,3.62
2018-07-12T20:10:07.372Z,3.70
2018-07-12T20:12:42.110Z,3.45
2018-07-12T20:15:17.455Z,3.98
2018-07-12T20:17:52.224Z,4.67
2018-07-12T20:20:27.014Z,4.20
2018-07-12T20:23:01.957Z,4.67
2018-07-12T20:25:36.876Z,4.20
2018-07-12T20:28:11.669Z,4.22
2018-07-12T20:30:48.372Z,4.20
2018-07-12T20:33:22.620Z,4.22
2018-07-12T20:35:58.391Z,4.33
2018-07-12T20:38:33.157Z,4.40
2018-07-12T20:41:08.565Z,5.12
2018-07-12T20:43:43.324Z,5.20
2018-07-12T20:46:18.102Z,4.67
2018-07-12T20:48:52.866Z,4.65
2018-07-12T20:51:27.619Z,4.83
2018-07-12T20:54:02.424Z,5.00
2018-07-12T20:56:37.164Z,6.17
2018-07-12T20:59:11.916Z,6.45
2018-07-12T21:01:46.635Z,5.58
2018-07-12T21:04:21.654Z,5.92
2018-07-12T21:06:56.400Z,5.47
2018-07-12T21:09:31.111Z,5.67
2018-07-12T21:12:06.956Z,6.60
2018-07-12T21:14:41.169Z,6.03
2018-07-12T21:17:16.154Z,6.35
2018-07-12T21:19:50.907Z,5.90
2018-07-12T21:22:25.685Z,14.00
2018-07-12T21:25:00.428Z,12.40
2018-07-12T21:27:35.180Z,9.75
2018-07-12T21:30:11.576Z,7.33
2018-07-12T21:32:45.834Z,6.50
2018-07-12T21:35:20.536Z,7.12
2018-07-12T21:37:55.326Z,6.65
2018-07-12T21:40:31.024Z,6.95
2018-07-12T21:43:06.817Z,6.50
2018-07-12T21:45:42.512Z,6.22
2018-07-12T21:48:18.285Z,5.65
2018-07-12T21:50:53.020Z,5.87
2018-07-12T21:53:27.756Z,6.08
2018-07-12T21:56:02.500Z,5.60
2018-07-12T21:58:37.272Z,5.87
2018-07-12T22:01:12.050Z,5.65
2018-07-12T22:03:46.784Z,5.87
2018-07-12T22:06:27.729Z,5.50
2018-07-12T22:09:02.490Z,5.95
2018-07-12T22:11:36.759Z,6.08
2018-07-12T22:14:12.561Z,6.83
2018-07-12T22:16:47.831Z,5.28
2018-07-12T22:19:22.564Z,5.92
2018-07-12T22:21:57.338Z,5.92
2018-07-12T22:24:32.188Z,6.78
2018-07-12T22:27:06.430Z,6.45
2018-07-12T22:29:41.154Z,7.55
2018-07-12T22:32:15.879Z,7.15
2018-07-12T22:34:50.633Z,7.05
2018-07-12T22:37:25.378Z,7.45
2018-07-12T22:40:00.084Z,6.70
2018-07-12T22:42:34.961Z,6.75
2018-07-12T22:45:09.243Z,7.15
2018-07-12T22:47:45.007Z,8.45
2018-07-12T22:50:19.278Z,8.68
2018-07-12T22:52:54.101Z,9.60
2018-07-12T22:55:28.856Z,10.53
2018-07-12T22:58:04.637Z,11.03
2018-07-12T23:00:39.398Z,10.98
2018-07-12T23:03:15.194Z,11.40
2018-07-12T23:05:49.957Z,11.22
2018-07-12T23:08:25.809Z,12.50
2018-07-12T23:11:00.584Z,11.35
2018-07-12T23:13:35.365Z,11.45
2018-07-12T23:16:11.121Z,10.55
2018-07-12T23:18:46.925Z,10.00
2018-07-12T23:21:21.692Z,10.10
2018-07-12T23:23:56.489Z,9.50
2018-07-12T23:26:32.900Z,9.75
2018-07-12T23:29:07.693Z,8.93
2018-07-12T23:31:41.948Z,8.93
2018-07-12T23:34:16.823Z,7.97
2018-07-12T23:36:51.581Z,8.10
2018-07-12T23:39:26.539Z,8.13
2018-07-12T23:42:01.272Z,7.70
2018-07-12T23:44:36.065Z,7.65
2018-07-12T23:47:10.810Z,8.30
2018-07-12T23:49:46.612Z,7.67
2018-07-12T23:52:21.365Z,7.50
2018-07-12T23:54:55.613Z,7.37
2018-07-12T23:57:30.359Z,7.33
